createdAt,value
2022-08-28T00:01:10.431Z,82
2022-08-28T00:11:10.727Z,83
2022-08-28T00:31:11.205Z,83
2022-08-28T00:41:11.495Z,84
2022-08-28T00:51:11.837Z,85
2022-08-28T01:01:12.881Z,85
2022-08-28T01:11:13.700Z,85
2022-08-28T01:21:20.334Z,86
2022-08-28T01:31:15.263Z,86
2022-08-28T01:41:16.302Z,86
2022-08-28T01:51:19.462Z,86
2022-08-28T02:01:17.595Z,87
2022-08-28T02:11:18.214Z,88
2022-08-28T02:21:18.773Z,88
2022-08-28T02:31:19.074Z,89
2022-08-28T02:41:19.765Z,89
2022-08-28T02:51:20.284Z,90
2022-08-28T03:01:21.148Z,90
2022-08-28T03:11:22.050Z,91
2022-08-28T03:21:22.973Z,91
2022-08-28T03:31:23.745Z,92
2022-08-28T03:41:24.081Z,93
2022-08-28T03:51:28.010Z,93
2022-08-28T04:01:24.909Z,94
2022-08-28T04:11:24.950Z,95
2022-08-28T04:21:25.476Z,95
2022-08-28T04:31:31.352Z,96
2022-08-28T04:41:26.980Z,96
2022-08-28T04:51:27.073Z,97
2022-08-28T05:01:27.800Z,97
2022-08-28T05:11:32.808Z,97
2022-08-28T05:21:28.646Z,98
2022-08-28T05:31:28.870Z,98
2022-08-28T05:41:29.343Z,98
2022-08-28T05:51:30.249Z,98
2022-08-28T06:11:31.367Z,97
2022-08-28T06:21:32.131Z,96
2022-08-28T06:31:33.695Z,95
2022-08-28T06:41:34.043Z,95
2022-08-28T06:51:34.842Z,93
2022-08-28T07:01:35.406Z,92
2022-08-28T07:11:36.008Z,91
2022-08-28T07:21:36.893Z,90
2022-08-28T07:31:36.673Z,88
2022-08-28T07:41:37.366Z,86
2022-08-28T07:51:37.874Z,83
2022-08-28T08:01:38.609Z,80
2022-08-28T08:11:39.121Z,77
2022-08-28T08:21:39.885Z,75
2022-08-28T08:31:42.740Z,73
2022-08-28T08:41:40.988Z,71
2022-08-28T08:51:41.294Z,71
2022-08-28T09:01:42.318Z,70
2022-08-28T09:11:42.658Z,70
2022-08-28T09:21:43.567Z,70
2022-08-28T09:31:44.233Z,69
2022-08-28T09:41:45.020Z,67
2022-08-28T09:51:45.531Z,67
2022-08-28T10:11:47.410Z,66
2022-08-28T10:21:48.469Z,65
2022-08-28T10:31:49.065Z,64
2022-08-28T10:41:49.923Z,63
2022-08-28T10:51:51.257Z,62
2022-08-28T11:11:52.146Z,59
2022-08-28T11:41:54.536Z,57
2022-08-28T11:51:54.813Z,58
2022-08-28T12:01:55.031Z,56
2022-08-28T12:11:55.502Z,55
2022-08-28T12:22:02.029Z,56
2022-08-28T12:32:02.555Z,55
2022-08-28T12:52:03.257Z,55
2022-08-28T13:02:04.404Z,56
2022-08-28T13:12:06.908Z,54
2022-08-28T13:22:05.440Z,54
2022-08-28T13:32:06.380Z,55
2022-08-28T13:52:07.721Z,53
2022-08-28T14:02:07.938Z,52
2022-08-28T14:12:08.242Z,52
2022-08-28T14:22:09.101Z,53
2022-08-28T14:32:09.584Z,52
2022-08-28T14:52:10.993Z,53
2022-08-28T15:02:11.985Z,53
2022-08-28T15:12:12.088Z,52
2022-08-28T15:22:12.412Z,54
2022-08-28T15:32:13.454Z,53
2022-08-28T15:42:13.750Z,54
2022-08-28T15:52:14.732Z,54
2022-08-28T16:02:15.658Z,54
2022-08-28T16:12:16.119Z,54
2022-08-28T16:22:16.431Z,54
2022-08-28T16:32:17.150Z,54
2022-08-28T16:42:17.477Z,55
2022-08-28T17:02:18.677Z,55
2022-08-28T17:12:18.895Z,55
2022-08-28T17:22:19.077Z,55
2022-08-28T17:32:20.159Z,55
2022-08-28T17:42:20.719Z,55
2022-08-28T17:52:21.149Z,56
2022-08-28T18:02:21.421Z,57
2022-08-28T18:22:25.424Z,58
2022-08-28T18:32:23.622Z,58
2022-08-28T18:42:24.391Z,59
2022-08-28T18:52:24.716Z,60
2022-08-28T19:12:25.730Z,63
2022-08-28T19:32:27.289Z,67
2022-08-28T19:52:28.682Z,71
2022-08-28T20:12:29.871Z,73
2022-08-28T20:32:31.492Z,75
2022-08-28T22:02:36.875Z,81
2022-08-28T23:12:42.045Z,85
2022-08-28T23:22:43.092Z,85
2022-08-28T23:32:43.988Z,85
2022-08-28T23:42:44.169Z,86
